Cedar Bluff, Iowa
Current Conditions -  °F | °C
As of 10:52 PM on Monday 20 Oct 2014 (Local Time) from KIOW Reporting Station
Clear Clear  
Wind Chill: 45°   Ceiling: Unl
Heat Index: 45°   Visibility: 10mi
Dew Point: 42°   Wind: 0mph
Humidity: 90%   Direction: NA
Pressure: 30.04"   Gusts: NA
Location:  41.7563°N, 91.1443°W
Report Text: KIOW 210352Z AUTO 00000KT 10SM CLR 07/06 A3004 RMK AO2 SLP175 T00720056
Loading
Personal Weather Stations






























Interactive Weather Map
Tropical Storm Tracking
New forecast layout! Learn more

10-Day Weather Forecast

Advertisements
Track Severe Weather on mobile